createdAt,value
2023-03-29T00:00:22.393Z,7.57
2023-03-29T00:05:49.073Z,8.25
2023-03-29T00:10:59.475Z,4.57
2023-03-29T00:16:07.963Z,6.45
2023-03-29T00:21:14.285Z,9.50
2023-03-29T00:26:22.146Z,8.13
2023-03-29T00:31:29.831Z,9.20
2023-03-29T00:36:36.645Z,7.63
2023-03-29T00:41:45.745Z,14.32
2023-03-29T00:46:52.517Z,9.40
2023-03-29T00:51:59.362Z,10.68
2023-03-29T00:57:09.769Z,10.63
2023-03-29T01:02:18.283Z,11.65
2023-03-29T01:12:42.825Z,8.52
2023-03-29T01:17:51.077Z,10.80
2023-03-29T01:23:19.486Z,8.48
2023-03-29T01:28:33.432Z,7.88
2023-03-29T01:33:45.524Z,8.38
2023-03-29T01:38:57.573Z,9.48
2023-03-29T01:44:11.008Z,8.15
2023-03-29T01:49:24.984Z,8.50
2023-03-29T01:54:37.115Z,8.60
2023-03-29T01:59:48.943Z,8.40
2023-03-29T02:04:57.838Z,11.07
2023-03-29T02:10:05.436Z,6.57
2023-03-29T02:15:19.561Z,6.28
2023-03-29T02:20:32.320Z,9.45
2023-03-29T02:25:38.963Z,7.63
2023-03-29T02:30:53.808Z,7.25
2023-03-29T02:36:05.136Z,7.97
2023-03-29T02:42:30.817Z,9.55
2023-03-29T02:47:45.870Z,7.15
2023-03-29T02:52:59.629Z,6.15
2023-03-29T02:58:08.949Z,9.40
2023-03-29T03:03:18.383Z,8.63
2023-03-29T03:08:28.309Z,9.75
2023-03-29T03:13:34.870Z,7.00
2023-03-29T03:18:43.414Z,9.15
2023-03-29T03:23:50.715Z,7.88
2023-03-29T03:28:57.561Z,11.90
2023-03-29T03:34:26.590Z,7.88
2023-03-29T03:39:37.098Z,9.23
2023-03-29T03:44:45.817Z,9.75
2023-03-29T03:50:14.401Z,10.77
2023-03-29T03:55:22.373Z,7.85
2023-03-29T04:00:31.940Z,7.28
2023-03-29T04:06:05.307Z,11.13
2023-03-29T04:11:32.273Z,9.65
2023-03-29T04:16:38.824Z,10.85
2023-03-29T04:22:09.737Z,8.25
2023-03-29T04:27:16.895Z,12.48
2023-03-29T04:32:25.667Z,7.47
2023-03-29T04:37:40.645Z,9.60
2023-03-29T04:42:50.105Z,9.95
2023-03-29T04:48:03.125Z,11.05
2023-03-29T04:53:11.777Z,9.57
2023-03-29T04:58:20.773Z,11.95
2023-03-29T05:03:29.628Z,9.07
2023-03-29T05:08:42.878Z,8.60
2023-03-29T05:14:02.755Z,9.45
2023-03-29T05:19:13.377Z,13.35
2023-03-29T05:24:26.643Z,9.52
2023-03-29T05:29:37.091Z,7.85
2023-03-29T05:35:07.416Z,10.73
2023-03-29T05:40:16.484Z,8.65
2023-03-29T05:45:45.093Z,13.75
2023-03-29T05:50:56.565Z,8.63
2023-03-29T05:56:05.512Z,9.60
2023-03-29T06:01:14.898Z,13.30
2023-03-29T06:06:34.348Z,12.43
2023-03-29T06:11:42.522Z,7.97
2023-03-29T06:17:02.080Z,12.70
2023-03-29T06:22:08.564Z,14.98
2023-03-29T06:27:16.361Z,10.82
2023-03-29T06:32:23.744Z,10.93
2023-03-29T06:37:36.774Z,10.98
2023-03-29T06:42:59.743Z,8.70
2023-03-29T06:48:24.752Z,7.55
2023-03-29T06:53:31.739Z,7.72
2023-03-29T06:58:42.996Z,8.38
2023-03-29T07:04:09.703Z,10.68
2023-03-29T07:09:36.254Z,11.27
2023-03-29T07:15:13.730Z,10.18
2023-03-29T07:20:47.932Z,11.10
2023-03-29T07:25:54.810Z,9.20
2023-03-29T07:31:07.764Z,10.52
2023-03-29T07:36:19.989Z,7.68
2023-03-29T07:41:26.998Z,6.10
2023-03-29T07:46:53.109Z,5.40
2023-03-29T07:51:59.997Z,7.72
2023-03-29T07:57:07.145Z,4.47
2023-03-29T08:02:21.461Z,7.05
2023-03-29T08:07:31.278Z,8.43
2023-03-29T08:12:40.579Z,4.78
2023-03-29T08:17:48.970Z,8.52
2023-03-29T08:22:57.557Z,6.88
2023-03-29T08:28:29.964Z,6.03
2023-03-29T08:33:38.726Z,5.03
2023-03-29T08:39:08.336Z,8.05
2023-03-29T08:49:42.275Z,6.55
2023-03-29T08:54:54.303Z,5.50
2023-03-29T09:00:19.504Z,3.83
2023-03-29T09:05:32.232Z,4.82
2023-03-29T09:10:57.646Z,1.42
2023-03-29T09:16:14.128Z,2.97
2023-03-29T09:21:35.487Z,1.77
2023-03-29T09:26:48.365Z,2.88
2023-03-29T09:32:24.092Z,2.92
2023-03-29T09:37:42.119Z,3.50
2023-03-29T09:42:54.016Z,4.93
2023-03-29T09:48:08.422Z,4.72
2023-03-29T09:53:19.006Z,3.85
2023-03-29T09:58:36.324Z,2.97
2023-03-29T10:03:44.010Z,4.50
2023-03-29T10:08:59.246Z,4.15
2023-03-29T10:14:19.503Z,3.80
2023-03-29T10:19:31.328Z,2.75
2023-03-29T10:24:39.320Z,3.63
2023-03-29T10:29:47.133Z,3.70
2023-03-29T10:34:54.630Z,3.33
2023-03-29T10:40:02.768Z,4.30
2023-03-29T10:45:27.483Z,11.45
2023-03-29T10:50:38.432Z,6.03
2023-03-29T10:55:57.705Z,8.32
2023-03-29T11:01:05.722Z,7.40
2023-03-29T11:06:25.024Z,6.45
2023-03-29T11:12:14.464Z,8.63
2023-03-29T11:17:39.830Z,6.97
2023-03-29T11:22:57.724Z,11.00
2023-03-29T11:28:15.652Z,6.15
2023-03-29T11:33:48.852Z,5.15
2023-03-29T11:39:06.182Z,8.18
2023-03-29T11:44:21.431Z,5.97
2023-03-29T11:49:33.837Z,6.40
2023-03-29T11:54:45.216Z,7.60
2023-03-29T12:00:00.830Z,6.43
2023-03-29T12:05:18.324Z,7.97
2023-03-29T12:10:28.649Z,9.35
2023-03-29T12:15:43.002Z,5.70
2023-03-29T12:20:55.229Z,9.02
2023-03-29T12:26:12.361Z,7.47
2023-03-29T12:31:29.467Z,5.88
2023-03-29T12:37:22.329Z,4.93
2023-03-29T12:42:49.746Z,4.93
2023-03-29T12:48:21.083Z,3.90
2023-03-29T12:53:33.382Z,7.25
2023-03-29T12:59:08.529Z,5.72
2023-03-29T13:04:20.821Z,6.25
2023-03-29T13:09:30.221Z,3.20
2023-03-29T13:14:39.408Z,5.75
2023-03-29T13:25:25.657Z,5.10
2023-03-29T13:30:47.511Z,3.53
2023-03-29T13:36:05.094Z,4.63
2023-03-29T13:41:30.265Z,2.88
2023-03-29T13:46:43.215Z,3.53
2023-03-29T13:52:16.718Z,2.90
2023-03-29T13:57:27.668Z,2.60
2023-03-29T14:02:42.481Z,2.50
2023-03-29T14:07:55.067Z,5.50
2023-03-29T14:13:04.356Z,2.50
2023-03-29T14:23:24.470Z,2.08
2023-03-29T14:28:31.552Z,3.45
2023-03-29T14:33:38.474Z,4.03
2023-03-29T14:38:50.353Z,2.70
2023-03-29T14:43:57.866Z,3.75
2023-03-29T14:49:06.602Z,3.40
2023-03-29T14:54:22.428Z,2.45
2023-03-29T14:59:36.971Z,4.07
2023-03-29T15:04:43.931Z,6.65
2023-03-29T15:09:52.127Z,3.53
2023-03-29T15:14:58.826Z,4.47
2023-03-29T15:20:14.368Z,4.50
2023-03-29T15:25:23.674Z,3.25
2023-03-29T15:30:39.659Z,3.67
2023-03-29T15:35:52.235Z,4.15
2023-03-29T15:41:00.867Z,6.93
2023-03-29T15:46:08.684Z,7.15
2023-03-29T15:51:15.940Z,5.43
2023-03-29T15:56:23.982Z,6.38
2023-03-29T16:01:36.072Z,2.70
2023-03-29T16:06:43.763Z,3.90
2023-03-29T16:11:52.427Z,5.57
2023-03-29T16:16:59.651Z,3.40
2023-03-29T16:22:07.747Z,5.90
2023-03-29T16:27:15.669Z,5.75
2023-03-29T16:32:22.437Z,4.57
2023-03-29T16:37:29.114Z,6.28
2023-03-29T16:42:37.938Z,5.40
2023-03-29T16:47:46.121Z,4.13
2023-03-29T16:52:52.978Z,6.93
2023-03-29T16:58:01.126Z,3.70
2023-03-29T17:03:08.447Z,6.03
2023-03-29T17:08:16.376Z,6.43
2023-03-29T17:13:24.648Z,12.25
2023-03-29T17:18:32.009Z,14.00
2023-03-29T17:23:39.323Z,11.95
2023-03-29T17:28:49.908Z,14.40
2023-03-29T17:33:57.233Z,13.65
2023-03-29T17:39:10.032Z,11.73
2023-03-29T17:44:19.191Z,15.68
2023-03-29T17:49:28.113Z,12.93
2023-03-29T17:54:36.509Z,72.80
2023-03-29T17:59:45.858Z,38.80
2023-03-29T18:04:54.163Z,26.63
2023-03-29T18:10:03.321Z,21.60
2023-03-29T18:15:14.968Z,20.38
2023-03-29T18:20:24.604Z,40.90
2023-03-29T18:25:32.608Z,57.15
2023-03-29T18:30:43.738Z,64.97
2023-03-29T18:35:53.445Z,43.60
2023-03-29T18:41:02.296Z,62.08
2023-03-29T18:46:15.078Z,81.35
2023-03-29T18:51:24.637Z,159.07
2023-03-29T18:56:34.868Z,215.05
2023-03-29T19:01:46.565Z,220.55
2023-03-29T19:06:56.487Z,200.20
2023-03-29T19:12:06.580Z,75.35
2023-03-29T19:17:17.787Z,72.28
2023-03-29T19:22:26.766Z,77.07
2023-03-29T19:27:37.584Z,57.67
2023-03-29T19:32:49.629Z,60.42
2023-03-29T19:38:02.338Z,58.13
2023-03-29T19:43:18.407Z,61.88
2023-03-29T19:48:30.484Z,65.05
2023-03-29T19:53:41.897Z,60.97
2023-03-29T19:58:50.010Z,56.70
2023-03-29T20:04:00.179Z,56.93
2023-03-29T20:09:09.594Z,48.92
2023-03-29T20:14:17.935Z,38.27
2023-03-29T20:19:30.630Z,43.80
2023-03-29T20:24:38.581Z,57.33
2023-03-29T20:29:46.188Z,59.75
2023-03-29T20:34:54.640Z,94.10
2023-03-29T20:40:01.208Z,84.87
2023-03-29T20:45:18.899Z,103.03
2023-03-29T20:50:27.898Z,129.35
2023-03-29T20:55:35.691Z,119.20
2023-03-29T21:00:42.778Z,84.45
2023-03-29T21:05:55.053Z,80.60
2023-03-29T21:11:02.670Z,78.05
2023-03-29T21:16:11.161Z,43.38
2023-03-29T21:21:19.649Z,59.40
2023-03-29T21:26:26.744Z,52.67
2023-03-29T21:31:33.696Z,49.85
2023-03-29T21:36:42.817Z,57.45
2023-03-29T21:46:55.642Z,48.42
2023-03-29T21:52:04.010Z,51.67
2023-03-29T21:57:10.691Z,52.50
2023-03-29T22:02:17.830Z,45.42
2023-03-29T22:07:25.835Z,50.00
2023-03-29T22:12:34.798Z,40.42
2023-03-29T22:17:43.116Z,39.13
2023-03-29T22:22:52.584Z,28.38
2023-03-29T22:27:59.079Z,46.22
2023-03-29T22:33:05.616Z,32.05
2023-03-29T22:38:13.666Z,31.10
2023-03-29T22:43:20.343Z,29.40
2023-03-29T22:48:27.088Z,21.63
2023-03-29T22:53:35.564Z,22.08
2023-03-29T22:58:42.106Z,21.73
2023-03-29T23:03:50.054Z,20.08
2023-03-29T23:08:58.106Z,19.70
2023-03-29T23:14:05.494Z,15.10
2023-03-29T23:19:12.217Z,16.48
2023-03-29T23:24:20.139Z,24.83
2023-03-29T23:29:26.652Z,24.20
2023-03-29T23:34:33.546Z,20.73
2023-03-29T23:39:41.985Z,18.25
2023-03-29T23:44:48.660Z,20.20
2023-03-29T23:49:55.351Z,18.40
2023-03-29T23:55:03.446Z,15.48
